sensor_id;sensor_type;location;lat;lon;timestamp;temperature;humidity
46754;DHT22;32500;50.620;3.400;2023-01-28T00:00:06;13.30;62.30
46754;DHT22;32500;50.620;3.400;2023-01-28T00:02:34;13.30;62.40
46754;DHT22;32500;50.620;3.400;2023-01-28T00:04:59;13.40;62.40
46754;DHT22;32500;50.620;3.400;2023-01-28T00:07:25;13.40;62.50
46754;DHT22;32500;50.620;3.400;2023-01-28T00:09:51;13.30;62.30
46754;DHT22;32500;50.620;3.400;2023-01-28T00:12:17;13.30;62.40
46754;DHT22;32500;50.620;3.400;2023-01-28T00:14:42;13.30;62.30
46754;DHT22;32500;50.620;3.400;2023-01-28T00:17:10;13.30;62.40
46754;DHT22;32500;50.620;3.400;2023-01-28T00:19:36;13.30;62.20
46754;DHT22;32500;50.620;3.400;2023-01-28T00:22:03;13.30;62.00
46754;DHT22;32500;50.620;3.400;2023-01-28T00:24:29;13.30;62.10
46754;DHT22;32500;50.620;3.400;2023-01-28T00:26:55;13.40;62.30
46754;DHT22;32500;50.620;3.400;2023-01-28T00:29:20;13.40;62.00
46754;DHT22;32500;50.620;3.400;2023-01-28T00:31:46;13.30;62.10
46754;DHT22;32500;50.620;3.400;2023-01-28T00:34:12;13.30;62.10
46754;DHT22;32500;50.620;3.400;2023-01-28T00:36:37;13.30;62.30
46754;DHT22;32500;50.620;3.400;2023-01-28T00:39:04;13.20;62.50
46754;DHT22;32500;50.620;3.400;2023-01-28T00:41:31;13.20;62.40
46754;DHT22;32500;50.620;3.400;2023-01-28T00:43:57;13.30;62.40
46754;DHT22;32500;50.620;3.400;2023-01-28T00:46:24;13.30;62.50
46754;DHT22;32500;50.620;3.400;2023-01-28T00:48:51;13.20;62.30
46754;DHT22;32500;50.620;3.400;2023-01-28T00:51:18;13.20;62.30
46754;DHT22;32500;50.620;3.400;2023-01-28T00:53:45;13.20;62.50
46754;DHT22;32500;50.620;3.400;2023-01-28T00:56:16;13.20;62.50
46754;DHT22;32500;50.620;3.400;2023-01-28T00:58:42;13.30;62.20
46754;DHT22;32500;50.620;3.400;2023-01-28T01:01:17;13.30;62.30
46754;DHT22;32500;50.620;3.400;2023-01-28T01:03:43;13.20;62.30
46754;DHT22;32500;50.620;3.400;2023-01-28T01:06:10;13.20;62.20
46754;DHT22;32500;50.620;3.400;2023-01-28T01:08:36;13.20;62.40
46754;DHT22;32500;50.620;3.400;2023-01-28T01:11:06;13.20;62.50
46754;DHT22;32500;50.620;3.400;2023-01-28T01:13:32;13.20;62.40
46754;DHT22;32500;50.620;3.400;2023-01-28T01:16:13;13.20;62.30
46754;DHT22;32500;50.620;3.400;2023-01-28T01:18:40;13.20;62.40
46754;DHT22;32500;50.620;3.400;2023-01-28T01:21:17;13.20;62.40
46754;DHT22;32500;50.620;3.400;2023-01-28T01:23:44;13.20;62.40
46754;DHT22;32500;50.620;3.400;2023-01-28T01:26:10;13.10;62.40
46754;DHT22;32500;50.620;3.400;2023-01-28T01:28:36;13.20;62.50
46754;DHT22;32500;50.620;3.400;2023-01-28T01:31:07;13.20;62.50
46754;DHT22;32500;50.620;3.400;2023-01-28T01:33:34;13.20;62.40
46754;DHT22;32500;50.620;3.400;2023-01-28T01:35:59;13.10;62.40
46754;DHT22;32500;50.620;3.400;2023-01-28T01:38:26;13.20;62.40
46754;DHT22;32500;50.620;3.400;2023-01-28T01:40:55;13.20;62.40
46754;DHT22;32500;50.620;3.400;2023-01-28T01:43:22;13.10;62.50
46754;DHT22;32500;50.620;3.400;2023-01-28T01:45:54;13.20;62.50
46754;DHT22;32500;50.620;3.400;2023-01-28T01:48:34;13.20;62.20
46754;DHT22;32500;50.620;3.400;2023-01-28T01:51:08;13.20;62.30
46754;DHT22;32500;50.620;3.400;2023-01-28T01:53:41;13.10;62.50
46754;DHT22;32500;50.620;3.400;2023-01-28T01:56:10;13.10;62.50
46754;DHT22;32500;50.620;3.400;2023-01-28T01:58:40;13.10;62.20
46754;DHT22;32500;50.620;3.400;2023-01-28T02:01:06;13.10;62.30
46754;DHT22;32500;50.620;3.400;2023-01-28T02:06:16;13.10;62.30
46754;DHT22;32500;50.620;3.400;2023-01-28T02:08:43;13.10;62.50
46754;DHT22;32500;50.620;3.400;2023-01-28T02:11:10;13.10;62.40
46754;DHT22;32500;50.620;3.400;2023-01-28T02:13:43;13.10;62.60
46754;DHT22;32500;50.620;3.400;2023-01-28T02:16:10;13.00;62.70
46754;DHT22;32500;50.620;3.400;2023-01-28T02:18:36;13.00;62.70
46754;DHT22;32500;50.620;3.400;2023-01-28T02:32:14;13.00;62.90
46754;DHT22;32500;50.620;3.400;2023-01-28T02:34:49;13.00;62.80
46754;DHT22;32500;50.620;3.400;2023-01-28T02:37:33;13.00;62.80
46754;DHT22;32500;50.620;3.400;2023-01-28T02:40:12;13.00;62.50
46754;DHT22;32500;50.620;3.400;2023-01-28T02:42:39;13.00;62.70
46754;DHT22;32500;50.620;3.400;2023-01-28T02:45:31;13.00;62.70
46754;DHT22;32500;50.620;3.400;2023-01-28T02:48:17;13.00;62.70
46754;DHT22;32500;50.620;3.400;2023-01-28T02:50:59;13.00;62.60
46754;DHT22;32500;50.620;3.400;2023-01-28T02:53:47;13.00;62.70
46754;DHT22;32500;50.620;3.400;2023-01-28T02:57:18;13.00;62.70
46754;DHT22;32500;50.620;3.400;2023-01-28T02:59:29;13.00;62.80
46754;DHT22;32500;50.620;3.400;2023-01-28T03:04:40;13.00;62.50
46754;DHT22;32500;50.620;3.400;2023-01-28T03:07:09;13.00;62.60
46754;DHT22;32500;50.620;3.400;2023-01-28T03:09:38;13.00;62.70
46754;DHT22;32500;50.620;3.400;2023-01-28T03:12:26;13.00;62.50
46754;DHT22;32500;50.620;3.400;2023-01-28T03:15:17;13.00;62.60
46754;DHT22;32500;50.620;3.400;2023-01-28T03:21:06;12.90;62.80
46754;DHT22;32500;50.620;3.400;2023-01-28T03:24:10;13.00;62.70
46754;DHT22;32500;50.620;3.400;2023-01-28T03:29:47;13.00;62.50
46754;DHT22;32500;50.620;3.400;2023-01-28T03:32:33;12.90;62.40
46754;DHT22;32500;50.620;3.400;2023-01-28T03:35:21;13.00;62.50
46754;DHT22;32500;50.620;3.400;2023-01-28T03:38:07;13.00;62.50
46754;DHT22;32500;50.620;3.400;2023-01-28T03:41:01;13.00;62.50
46754;DHT22;32500;50.620;3.400;2023-01-28T03:43:30;13.00;62.50
46754;DHT22;32500;50.620;3.400;2023-01-28T03:45:56;13.00;62.50
46754;DHT22;32500;50.620;3.400;2023-01-28T03:48:24;12.90;62.50
46754;DHT22;32500;50.620;3.400;2023-01-28T03:50:50;12.90;62.60
46754;DHT22;32500;50.620;3.400;2023-01-28T03:53:17;12.90;62.50
46754;DHT22;32500;50.620;3.400;2023-01-28T03:55:45;12.90;62.50
46754;DHT22;32500;50.620;3.400;2023-01-28T03:58:11;12.90;62.70
46754;DHT22;32500;50.620;3.400;2023-01-28T04:00:38;12.90;62.60
46754;DHT22;32500;50.620;3.400;2023-01-28T04:03:10;12.90;62.40
46754;DHT22;32500;50.620;3.400;2023-01-28T04:08:12;12.90;62.50
46754;DHT22;32500;50.620;3.400;2023-01-28T04:10:39;12.80;62.80
46754;DHT22;32500;50.620;3.400;2023-01-28T04:13:05;12.80;62.80
46754;DHT22;32500;50.620;3.400;2023-01-28T04:15:31;12.80;63.00
46754;DHT22;32500;50.620;3.400;2023-01-28T04:17:57;12.90;62.80
46754;DHT22;32500;50.620;3.400;2023-01-28T04:20:25;12.90;62.50
46754;DHT22;32500;50.620;3.400;2023-01-28T04:22:51;12.90;62.50
46754;DHT22;32500;50.620;3.400;2023-01-28T04:25:16;12.80;62.60
46754;DHT22;32500;50.620;3.400;2023-01-28T04:27:42;12.80;62.60
46754;DHT22;32500;50.620;3.400;2023-01-28T04:30:08;12.80;62.80
46754;DHT22;32500;50.620;3.400;2023-01-28T04:32:34;12.80;62.80
46754;DHT22;32500;50.620;3.400;2023-01-28T04:34:59;12.80;63.40
46754;DHT22;32500;50.620;3.400;2023-01-28T04:37:25;12.80;62.80
46754;DHT22;32500;50.620;3.400;2023-01-28T04:39:50;12.80;62.90
46754;DHT22;32500;50.620;3.400;2023-01-28T04:42:16;12.80;62.70
46754;DHT22;32500;50.620;3.400;2023-01-28T04:44:42;12.80;62.50
46754;DHT22;32500;50.620;3.400;2023-01-28T04:47:07;12.80;62.60
46754;DHT22;32500;50.620;3.400;2023-01-28T04:49:33;12.80;62.70
46754;DHT22;32500;50.620;3.400;2023-01-28T04:51:58;12.80;62.80
46754;DHT22;32500;50.620;3.400;2023-01-28T04:54:24;12.70;62.80
46754;DHT22;32500;50.620;3.400;2023-01-28T04:56:50;12.80;62.90
46754;DHT22;32500;50.620;3.400;2023-01-28T04:59:15;12.70;62.90
46754;DHT22;32500;50.620;3.400;2023-01-28T05:01:41;12.70;62.80
46754;DHT22;32500;50.620;3.400;2023-01-28T05:04:07;12.80;62.80
46754;DHT22;32500;50.620;3.400;2023-01-28T05:06:34;12.70;62.70
46754;DHT22;32500;50.620;3.400;2023-01-28T05:08:59;12.70;62.90
46754;DHT22;32500;50.620;3.400;2023-01-28T05:11:25;12.70;63.00
46754;DHT22;32500;50.620;3.400;2023-01-28T05:13:51;12.80;63.20
46754;DHT22;32500;50.620;3.400;2023-01-28T05:16:18;12.80;63.00
46754;DHT22;32500;50.620;3.400;2023-01-28T05:18:44;12.70;62.80
46754;DHT22;32500;50.620;3.400;2023-01-28T05:21:12;12.80;62.90
46754;DHT22;32500;50.620;3.400;2023-01-28T05:23:38;12.70;62.80
46754;DHT22;32500;50.620;3.400;2023-01-28T05:26:04;12.70;62.80
46754;DHT22;32500;50.620;3.400;2023-01-28T05:28:29;12.70;62.80
46754;DHT22;32500;50.620;3.400;2023-01-28T05:30:55;12.70;62.90
46754;DHT22;32500;50.620;3.400;2023-01-28T05:33:20;12.60;63.10
46754;DHT22;32500;50.620;3.400;2023-01-28T05:35:46;12.60;63.20
46754;DHT22;32500;50.620;3.400;2023-01-28T05:38:13;12.60;63.00
46754;DHT22;32500;50.620;3.400;2023-01-28T05:40:39;12.70;62.90
46754;DHT22;32500;50.620;3.400;2023-01-28T05:43:05;12.60;63.10
46754;DHT22;32500;50.620;3.400;2023-01-28T05:45:30;12.60;63.10
46754;DHT22;32500;50.620;3.400;2023-01-28T05:47:56;12.60;63.00
46754;DHT22;32500;50.620;3.400;2023-01-28T05:50:22;12.70;63.10
46754;DHT22;32500;50.620;3.400;2023-01-28T05:52:47;12.60;62.90
46754;DHT22;32500;50.620;3.400;2023-01-28T05:55:13;12.60;63.00
46754;DHT22;32500;50.620;3.400;2023-01-28T05:57:39;12.70;63.70
46754;DHT22;32500;50.620;3.400;2023-01-28T06:00:05;12.60;62.80
46754;DHT22;32500;50.620;3.400;2023-01-28T06:02:31;12.60;62.80
46754;DHT22;32500;50.620;3.400;2023-01-28T06:04:57;12.70;62.80
46754;DHT22;32500;50.620;3.400;2023-01-28T06:07:22;12.70;63.00
46754;DHT22;32500;50.620;3.400;2023-01-28T06:09:48;12.70;63.00
46754;DHT22;32500;50.620;3.400;2023-01-28T06:12:14;12.70;63.10
46754;DHT22;32500;50.620;3.400;2023-01-28T06:14:40;12.60;62.70
46754;DHT22;32500;50.620;3.400;2023-01-28T06:17:07;12.70;62.90
46754;DHT22;32500;50.620;3.400;2023-01-28T06:19:32;12.70;62.90
46754;DHT22;32500;50.620;3.400;2023-01-28T06:21:58;12.60;62.90
46754;DHT22;32500;50.620;3.400;2023-01-28T06:24:24;12.60;63.00
46754;DHT22;32500;50.620;3.400;2023-01-28T06:26:49;12.60;63.00
46754;DHT22;32500;50.620;3.400;2023-01-28T06:29:15;12.60;63.00
46754;DHT22;32500;50.620;3.400;2023-01-28T06:31:41;12.70;63.10
46754;DHT22;32500;50.620;3.400;2023-01-28T06:34:08;12.60;62.90
46754;DHT22;32500;50.620;3.400;2023-01-28T06:36:35;12.60;63.00
46754;DHT22;32500;50.620;3.400;2023-01-28T06:39:02;12.60;62.80
46754;DHT22;32500;50.620;3.400;2023-01-28T06:41:28;12.60;62.70
46754;DHT22;32500;50.620;3.400;2023-01-28T06:43:54;12.70;62.70
46754;DHT22;32500;50.620;3.400;2023-01-28T06:46:19;12.60;62.80
46754;DHT22;32500;50.620;3.400;2023-01-28T06:48:45;12.60;62.70
46754;DHT22;32500;50.620;3.400;2023-01-28T06:51:11;12.60;62.80
46754;DHT22;32500;50.620;3.400;2023-01-28T06:53:36;12.60;62.80
46754;DHT22;32500;50.620;3.400;2023-01-28T06:56:02;12.60;62.80
46754;DHT22;32500;50.620;3.400;2023-01-28T06:58:28;12.60;62.70
46754;DHT22;32500;50.620;3.400;2023-01-28T07:00:53;12.60;62.80
46754;DHT22;32500;50.620;3.400;2023-01-28T07:03:19;12.70;62.70
46754;DHT22;32500;50.620;3.400;2023-01-28T07:05:45;12.70;62.40
46754;DHT22;32500;50.620;3.400;2023-01-28T07:08:11;12.60;62.60
46754;DHT22;32500;50.620;3.400;2023-01-28T07:10:36;12.60;62.40
46754;DHT22;32500;50.620;3.400;2023-01-28T07:13:02;12.60;62.70
46754;DHT22;32500;50.620;3.400;2023-01-28T07:15:28;12.60;62.80
46754;DHT22;32500;50.620;3.400;2023-01-28T07:17:54;12.70;62.60
46754;DHT22;32500;50.620;3.400;2023-01-28T07:20:20;12.60;62.70
46754;DHT22;32500;50.620;3.400;2023-01-28T07:22:46;12.60;62.80
46754;DHT22;32500;50.620;3.400;2023-01-28T07:25:13;12.60;62.90
46754;DHT22;32500;50.620;3.400;2023-01-28T07:27:44;12.60;63.40
46754;DHT22;32500;50.620;3.400;2023-01-28T07:30:10;12.60;62.70
46754;DHT22;32500;50.620;3.400;2023-01-28T07:32:36;12.60;62.70
46754;DHT22;32500;50.620;3.400;2023-01-28T07:35:01;12.60;62.70
46754;DHT22;32500;50.620;3.400;2023-01-28T07:37:27;12.60;62.90
46754;DHT22;32500;50.620;3.400;2023-01-28T07:39:52;12.50;62.90
46754;DHT22;32500;50.620;3.400;2023-01-28T07:42:18;12.60;62.80
46754;DHT22;32500;50.620;3.400;2023-01-28T07:44:44;12.50;62.80
46754;DHT22;32500;50.620;3.400;2023-01-28T07:47:09;12.50;62.70
46754;DHT22;32500;50.620;3.400;2023-01-28T07:49:35;12.50;63.00
46754;DHT22;32500;50.620;3.400;2023-01-28T07:52:04;12.50;62.80
46754;DHT22;32500;50.620;3.400;2023-01-28T07:54:30;12.50;63.00
46754;DHT22;32500;50.620;3.400;2023-01-28T07:56:55;12.50;62.90
46754;DHT22;32500;50.620;3.400;2023-01-28T07:59:21;12.50;62.60
46754;DHT22;32500;50.620;3.400;2023-01-28T08:01:47;12.50;62.90
46754;DHT22;32500;50.620;3.400;2023-01-28T08:04:12;12.50;62.90
46754;DHT22;32500;50.620;3.400;2023-01-28T08:06:38;12.50;62.90
46754;DHT22;32500;50.620;3.400;2023-01-28T08:09:04;12.50;63.00
46754;DHT22;32500;50.620;3.400;2023-01-28T08:11:41;12.50;62.90
46754;DHT22;32500;50.620;3.400;2023-01-28T08:14:08;12.50;62.80
46754;DHT22;32500;50.620;3.400;2023-01-28T08:16:34;12.50;62.90
46754;DHT22;32500;50.620;3.400;2023-01-28T08:19:00;12.50;62.80
46754;DHT22;32500;50.620;3.400;2023-01-28T08:21:25;12.50;62.70
46754;DHT22;32500;50.620;3.400;2023-01-28T08:23:51;12.40;62.80
46754;DHT22;32500;50.620;3.400;2023-01-28T08:26:17;12.50;62.90
46754;DHT22;32500;50.620;3.400;2023-01-28T08:28:42;12.50;62.70
46754;DHT22;32500;50.620;3.400;2023-01-28T08:31:08;12.50;62.80
46754;DHT22;32500;50.620;3.400;2023-01-28T08:33:33;12.50;62.80
46754;DHT22;32500;50.620;3.400;2023-01-28T08:36:02;12.50;62.60
46754;DHT22;32500;50.620;3.400;2023-01-28T08:38:27;12.60;62.50
46754;DHT22;32500;50.620;3.400;2023-01-28T08:40:55;12.50;62.50
46754;DHT22;32500;50.620;3.400;2023-01-28T08:43:21;12.50;62.60
46754;DHT22;32500;50.620;3.400;2023-01-28T08:45:46;12.60;62.50
46754;DHT22;32500;50.620;3.400;2023-01-28T08:48:15;12.60;62.30
46754;DHT22;32500;50.620;3.400;2023-01-28T08:50:41;12.60;62.40
46754;DHT22;32500;50.620;3.400;2023-01-28T08:53:15;12.60;62.40
46754;DHT22;32500;50.620;3.400;2023-01-28T08:55:41;12.60;62.30
46754;DHT22;32500;50.620;3.400;2023-01-28T08:58:10;12.50;62.30
46754;DHT22;32500;50.620;3.400;2023-01-28T09:00:37;12.60;62.40
46754;DHT22;32500;50.620;3.400;2023-01-28T09:03:03;12.50;62.50
46754;DHT22;32500;50.620;3.400;2023-01-28T09:05:29;12.50;62.40
46754;DHT22;32500;50.620;3.400;2023-01-28T09:08:00;12.50;62.50
46754;DHT22;32500;50.620;3.400;2023-01-28T09:10:26;12.40;62.40
46754;DHT22;32500;50.620;3.400;2023-01-28T09:12:52;12.50;62.80
46754;DHT22;32500;50.620;3.400;2023-01-28T09:15:17;12.50;62.80
46754;DHT22;32500;50.620;3.400;2023-01-28T09:17:43;12.50;62.60
46754;DHT22;32500;50.620;3.400;2023-01-28T09:20:09;12.50;62.70
46754;DHT22;32500;50.620;3.400;2023-01-28T09:22:36;12.50;62.40
46754;DHT22;32500;50.620;3.400;2023-01-28T09:25:02;12.50;62.50
46754;DHT22;32500;50.620;3.400;2023-01-28T09:27:28;12.50;62.60
46754;DHT22;32500;50.620;3.400;2023-01-28T09:29:53;12.50;62.60
46754;DHT22;32500;50.620;3.400;2023-01-28T09:32:19;12.50;62.30
46754;DHT22;32500;50.620;3.400;2023-01-28T09:34:45;12.60;62.30
46754;DHT22;32500;50.620;3.400;2023-01-28T09:37:11;12.60;62.30
46754;DHT22;32500;50.620;3.400;2023-01-28T09:39:37;12.80;62.10
46754;DHT22;32500;50.620;3.400;2023-01-28T09:47:39;12.80;61.60
46754;DHT22;32500;50.620;3.400;2023-01-28T09:50:14;12.80;61.50
46754;DHT22;32500;50.620;3.400;2023-01-28T09:52:40;13.00;61.00
46754;DHT22;32500;50.620;3.400;2023-01-28T09:55:14;13.00;60.90
46754;DHT22;32500;50.620;3.400;2023-01-28T09:57:49;13.00;60.90
46754;DHT22;32500;50.620;3.400;2023-01-28T10:00:29;12.90;61.60
46754;DHT22;32500;50.620;3.400;2023-01-28T10:03:12;13.00;60.80
46754;DHT22;32500;50.620;3.400;2023-01-28T10:11:25;13.10;60.60
46754;DHT22;32500;50.620;3.400;2023-01-28T10:14:03;13.10;60.40
46754;DHT22;32500;50.620;3.400;2023-01-28T10:16:37;13.10;60.30
46754;DHT22;32500;50.620;3.400;2023-01-28T10:19:22;13.20;60.30
46754;DHT22;32500;50.620;3.400;2023-01-28T10:24:40;13.20;60.00
46754;DHT22;32500;50.620;3.400;2023-01-28T10:27:16;13.30;59.90
46754;DHT22;32500;50.620;3.400;2023-01-28T10:29:44;13.30;59.80
46754;DHT22;32500;50.620;3.400;2023-01-28T10:34:53;13.40;59.60
46754;DHT22;32500;50.620;3.400;2023-01-28T10:37:20;13.40;59.70
46754;DHT22;32500;50.620;3.400;2023-01-28T10:39:46;13.50;59.50
46754;DHT22;32500;50.620;3.400;2023-01-28T10:42:31;13.50;59.50
46754;DHT22;32500;50.620;3.400;2023-01-28T10:45:14;13.50;59.40
46754;DHT22;32500;50.620;3.400;2023-01-28T10:47:45;13.40;59.50
46754;DHT22;32500;50.620;3.400;2023-01-28T10:50:24;13.40;59.30
46754;DHT22;32500;50.620;3.400;2023-01-28T10:53:04;13.50;59.40
46754;DHT22;32500;50.620;3.400;2023-01-28T10:55:55;13.60;59.30
46754;DHT22;32500;50.620;3.400;2023-01-28T10:58:23;13.50;59.10
46754;DHT22;32500;50.620;3.400;2023-01-28T11:00:54;13.50;59.10
46754;DHT22;32500;50.620;3.400;2023-01-28T11:03:22;13.60;59.10
46754;DHT22;32500;50.620;3.400;2023-01-28T11:05:53;13.60;58.90
46754;DHT22;32500;50.620;3.400;2023-01-28T11:08:23;13.60;59.10
46754;DHT22;32500;50.620;3.400;2023-01-28T11:10:51;13.60;59.20
46754;DHT22;32500;50.620;3.400;2023-01-28T11:13:19;13.60;59.20
46754;DHT22;32500;50.620;3.400;2023-01-28T11:15:53;13.60;59.10
46754;DHT22;32500;50.620;3.400;2023-01-28T11:18:27;13.50;59.20
46754;DHT22;32500;50.620;3.400;2023-01-28T11:21:00;13.60;59.20
46754;DHT22;32500;50.620;3.400;2023-01-28T11:23:32;13.70;59.00
46754;DHT22;32500;50.620;3.400;2023-01-28T11:26:12;13.60;59.20
46754;DHT22;32500;50.620;3.400;2023-01-28T11:28:40;13.60;59.30
46754;DHT22;32500;50.620;3.400;2023-01-28T11:31:09;13.60;59.10
46754;DHT22;32500;50.620;3.400;2023-01-28T11:33:38;13.50;59.30
46754;DHT22;32500;50.620;3.400;2023-01-28T11:36:36;13.50;59.40
46754;DHT22;32500;50.620;3.400;2023-01-28T11:39:23;13.50;59.40
46754;DHT22;32500;50.620;3.400;2023-01-28T11:41:51;13.50;59.40
46754;DHT22;32500;50.620;3.400;2023-01-28T11:44:24;13.40;59.50
46754;DHT22;32500;50.620;3.400;2023-01-28T11:55:03;13.50;59.40
46754;DHT22;32500;50.620;3.400;2023-01-28T12:05:55;13.50;59.50
46754;DHT22;32500;50.620;3.400;2023-01-28T12:08:28;13.50;59.40
46754;DHT22;32500;50.620;3.400;2023-01-28T12:11:43;13.50;59.20
46754;DHT22;32500;50.620;3.400;2023-01-28T12:17:45;13.60;59.00
46754;DHT22;32500;50.620;3.400;2023-01-28T12:20:30;13.60;59.00
46754;DHT22;32500;50.620;3.400;2023-01-28T12:28:27;13.70;59.00
46754;DHT22;32500;50.620;3.400;2023-01-28T12:31:34;13.60;59.00
46754;DHT22;32500;50.620;3.400;2023-01-28T12:42:13;13.70;59.00
46754;DHT22;32500;50.620;3.400;2023-01-28T12:44:50;13.70;58.90
46754;DHT22;32500;50.620;3.400;2023-01-28T12:47:21;13.70;58.80
46754;DHT22;32500;50.620;3.400;2023-01-28T12:50:43;13.80;58.90
46754;DHT22;32500;50.620;3.400;2023-01-28T12:52:46;13.80;58.70
46754;DHT22;32500;50.620;3.400;2023-01-28T12:55:38;13.80;58.70
46754;DHT22;32500;50.620;3.400;2023-01-28T13:00:59;13.80;58.80
46754;DHT22;32500;50.620;3.400;2023-01-28T13:06:22;13.80;58.70
46754;DHT22;32500;50.620;3.400;2023-01-28T13:08:49;13.80;58.70
46754;DHT22;32500;50.620;3.400;2023-01-28T13:11:16;13.70;58.90
46754;DHT22;32500;50.620;3.400;2023-01-28T13:13:44;13.70;58.90
46754;DHT22;32500;50.620;3.400;2023-01-28T13:16:11;13.70;58.80
46754;DHT22;32500;50.620;3.400;2023-01-28T13:23:49;13.80;58.80
46754;DHT22;32500;50.620;3.400;2023-01-28T13:28:48;13.80;58.50
46754;DHT22;32500;50.620;3.400;2023-01-28T13:31:16;13.80;58.60
46754;DHT22;32500;50.620;3.400;2023-01-28T13:36:28;13.80;58.60
46754;DHT22;32500;50.620;3.400;2023-01-28T13:39:19;13.80;58.70
46754;DHT22;32500;50.620;3.400;2023-01-28T13:41:55;13.80;58.60
46754;DHT22;32500;50.620;3.400;2023-01-28T13:46:50;13.70;58.80
46754;DHT22;32500;50.620;3.400;2023-01-28T13:49:21;13.60;58.90
46754;DHT22;32500;50.620;3.400;2023-01-28T13:57:33;13.50;59.20
46754;DHT22;32500;50.620;3.400;2023-01-28T14:03:26;13.50;59.40
46754;DHT22;32500;50.620;3.400;2023-01-28T14:14:44;13.50;59.50
46754;DHT22;32500;50.620;3.400;2023-01-28T14:17:40;13.50;59.40
46754;DHT22;32500;50.620;3.400;2023-01-28T14:20:18;13.50;59.40
46754;DHT22;32500;50.620;3.400;2023-01-28T14:22:46;13.50;59.40
46754;DHT22;32500;50.620;3.400;2023-01-28T14:25:15;13.50;59.40
46754;DHT22;32500;50.620;3.400;2023-01-28T14:27:46;13.60;59.30
46754;DHT22;32500;50.620;3.400;2023-01-28T14:30:24;13.60;59.30
46754;DHT22;32500;50.620;3.400;2023-01-28T14:32:51;13.60;59.30
46754;DHT22;32500;50.620;3.400;2023-01-28T14:35:29;13.70;59.30
46754;DHT22;32500;50.620;3.400;2023-01-28T14:37:56;13.70;58.70
46754;DHT22;32500;50.620;3.400;2023-01-28T14:40:23;13.70;58.80
46754;DHT22;32500;50.620;3.400;2023-01-28T14:42:52;13.70;59.10
46754;DHT22;32500;50.620;3.400;2023-01-28T14:45:56;13.70;58.90
46754;DHT22;32500;50.620;3.400;2023-01-28T14:56:35;13.80;58.60
46754;DHT22;32500;50.620;3.400;2023-01-28T14:59:37;13.80;58.80
46754;DHT22;32500;50.620;3.400;2023-01-28T15:02:18;13.70;58.50
46754;DHT22;32500;50.620;3.400;2023-01-28T15:04:45;13.60;58.80
46754;DHT22;32500;50.620;3.400;2023-01-28T15:07:22;13.60;58.80
46754;DHT22;32500;50.620;3.400;2023-01-28T15:10:03;13.60;58.90
46754;DHT22;32500;50.620;3.400;2023-01-28T15:12:33;13.70;58.80
46754;DHT22;32500;50.620;3.400;2023-01-28T15:15:08;13.60;58.80
46754;DHT22;32500;50.620;3.400;2023-01-28T15:17:34;13.60;59.00
46754;DHT22;32500;50.620;3.400;2023-01-28T15:20:00;13.60;59.00
46754;DHT22;32500;50.620;3.400;2023-01-28T15:22:27;13.50;59.00
46754;DHT22;32500;50.620;3.400;2023-01-28T15:24:54;13.50;59.00
46754;DHT22;32500;50.620;3.400;2023-01-28T15:27:27;13.50;59.10
46754;DHT22;32500;50.620;3.400;2023-01-28T15:29:56;13.50;59.10
46754;DHT22;32500;50.620;3.400;2023-01-28T15:32:27;13.40;59.20
46754;DHT22;32500;50.620;3.400;2023-01-28T15:34:54;13.40;59.50
46754;DHT22;32500;50.620;3.400;2023-01-28T15:37:20;13.30;59.60
46754;DHT22;32500;50.620;3.400;2023-01-28T15:39:46;13.30;59.60
46754;DHT22;32500;50.620;3.400;2023-01-28T15:42:24;13.30;59.60
46754;DHT22;32500;50.620;3.400;2023-01-28T15:44:54;13.20;60.00
46754;DHT22;32500;50.620;3.400;2023-01-28T15:47:28;13.10;60.10
46754;DHT22;32500;50.620;3.400;2023-01-28T15:49:57;13.10;60.30
46754;DHT22;32500;50.620;3.400;2023-01-28T15:52:34;13.00;60.50
46754;DHT22;32500;50.620;3.400;2023-01-28T15:55:01;13.00;60.40
46754;DHT22;32500;50.620;3.400;2023-01-28T15:57:30;12.90;60.70
46754;DHT22;32500;50.620;3.400;2023-01-28T16:00:11;12.90;60.90
46754;DHT22;32500;50.620;3.400;2023-01-28T16:02:46;12.80;60.90
46754;DHT22;32500;50.620;3.400;2023-01-28T16:05:27;12.80;61.00
46754;DHT22;32500;50.620;3.400;2023-01-28T16:07:53;12.80;61.20
46754;DHT22;32500;50.620;3.400;2023-01-28T16:10:24;12.70;61.40
46754;DHT22;32500;50.620;3.400;2023-01-28T16:13:26;12.70;61.30
46754;DHT22;32500;50.620;3.400;2023-01-28T16:15:46;12.70;61.40
46754;DHT22;32500;50.620;3.400;2023-01-28T16:20:55;12.70;61.60
46754;DHT22;32500;50.620;3.400;2023-01-28T16:23:24;12.60;61.50
46754;DHT22;32500;50.620;3.400;2023-01-28T16:26:05;12.70;61.50
46754;DHT22;32500;50.620;3.400;2023-01-28T16:28:31;12.60;61.80
46754;DHT22;32500;50.620;3.400;2023-01-28T16:30:58;12.60;61.80
46754;DHT22;32500;50.620;3.400;2023-01-28T16:33:25;12.60;61.90
46754;DHT22;32500;50.620;3.400;2023-01-28T16:35:51;12.60;61.80
46754;DHT22;32500;50.620;3.400;2023-01-28T16:38:17;12.60;62.00
46754;DHT22;32500;50.620;3.400;2023-01-28T16:40:44;12.60;61.80
46754;DHT22;32500;50.620;3.400;2023-01-28T16:43:11;12.60;61.80
46754;DHT22;32500;50.620;3.400;2023-01-28T16:45:37;12.70;61.80
46754;DHT22;32500;50.620;3.400;2023-01-28T16:48:03;12.60;61.90
46754;DHT22;32500;50.620;3.400;2023-01-28T16:50:30;12.60;61.90
46754;DHT22;32500;50.620;3.400;2023-01-28T16:52:57;12.60;61.90
46754;DHT22;32500;50.620;3.400;2023-01-28T16:55:23;12.60;61.90
46754;DHT22;32500;50.620;3.400;2023-01-28T16:57:51;12.60;61.90
46754;DHT22;32500;50.620;3.400;2023-01-28T17:00:20;12.60;61.90
46754;DHT22;32500;50.620;3.400;2023-01-28T17:02:50;12.50;62.00
46754;DHT22;32500;50.620;3.400;2023-01-28T17:05:16;12.50;62.00
46754;DHT22;32500;50.620;3.400;2023-01-28T17:07:42;12.50;62.00
46754;DHT22;32500;50.620;3.400;2023-01-28T17:10:09;12.50;61.90
46754;DHT22;32500;50.620;3.400;2023-01-28T17:12:35;12.50;62.10
46754;DHT22;32500;50.620;3.400;2023-01-28T17:15:00;12.50;62.00
46754;DHT22;32500;50.620;3.400;2023-01-28T17:17:28;12.50;62.00
46754;DHT22;32500;50.620;3.400;2023-01-28T17:19:53;12.50;62.20
46754;DHT22;32500;50.620;3.400;2023-01-28T17:22:20;12.50;61.90
46754;DHT22;32500;50.620;3.400;2023-01-28T17:24:45;12.50;62.00
46754;DHT22;32500;50.620;3.400;2023-01-28T17:27:11;12.50;62.10
46754;DHT22;32500;50.620;3.400;2023-01-28T17:29:37;12.50;62.10
46754;DHT22;32500;50.620;3.400;2023-01-28T17:32:03;12.50;62.20
46754;DHT22;32500;50.620;3.400;2023-01-28T17:34:28;12.50;62.00
46754;DHT22;32500;50.620;3.400;2023-01-28T17:36:54;12.50;62.00
46754;DHT22;32500;50.620;3.400;2023-01-28T17:39:20;12.50;62.00
46754;DHT22;32500;50.620;3.400;2023-01-28T17:41:45;12.50;62.00
46754;DHT22;32500;50.620;3.400;2023-01-28T17:44:12;12.50;62.20
46754;DHT22;32500;50.620;3.400;2023-01-28T17:46:40;12.50;61.90
46754;DHT22;32500;50.620;3.400;2023-01-28T17:49:06;12.50;62.10